sensor_id;sensor_type;location;lat;lon;timestamp;P1;durP1;ratioP1;P2;durP2;ratioP2
29218;SDS011;16421;50.202;7.852;2023-06-10T00:03:46;4.03;;;3.13;;
29218;SDS011;16421;50.202;7.852;2023-06-10T00:08:51;3.63;;;2.97;;
29218;SDS011;16421;50.202;7.852;2023-06-10T00:13:54;6.20;;;3.13;;
29218;SDS011;16421;50.202;7.852;2023-06-10T00:18:58;4.57;;;2.70;;
29218;SDS011;16421;50.202;7.852;2023-06-10T00:24:04;3.20;;;2.83;;
29218;SDS011;16421;50.202;7.852;2023-06-10T00:29:08;3.67;;;3.30;;
29218;SDS011;16421;50.202;7.852;2023-06-10T00:34:11;4.32;;;3.13;;
29218;SDS011;16421;50.202;7.852;2023-06-10T00:39:16;5.70;;;3.20;;
29218;SDS011;16421;50.202;7.852;2023-06-10T00:44:20;3.80;;;2.75;;
29218;SDS011;16421;50.202;7.852;2023-06-10T00:49:23;4.50;;;3.08;;
29218;SDS011;16421;50.202;7.852;2023-06-10T00:54:29;3.88;;;3.40;;
29218;SDS011;16421;50.202;7.852;2023-06-10T00:59:32;2.88;;;2.63;;
29218;SDS011;16421;50.202;7.852;2023-06-10T01:04:36;3.50;;;2.80;;
29218;SDS011;16421;50.202;7.852;2023-06-10T01:09:42;3.88;;;2.85;;
29218;SDS011;16421;50.202;7.852;2023-06-10T01:14:52;3.80;;;3.13;;
29218;SDS011;16421;50.202;7.852;2023-06-10T01:19:57;2.72;;;2.53;;
29218;SDS011;16421;50.202;7.852;2023-06-10T01:25:05;3.92;;;3.33;;
29218;SDS011;16421;50.202;7.852;2023-06-10T01:35:15;3.30;;;2.50;;
29218;SDS011;16421;50.202;7.852;2023-06-10T01:40:27;4.00;;;2.90;;
29218;SDS011;16421;50.202;7.852;2023-06-10T01:45:31;5.63;;;2.67;;
29218;SDS011;16421;50.202;7.852;2023-06-10T01:50:35;3.65;;;2.75;;
29218;SDS011;16421;50.202;7.852;2023-06-10T01:55:40;3.72;;;2.83;;
29218;SDS011;16421;50.202;7.852;2023-06-10T02:00:43;4.20;;;3.17;;
29218;SDS011;16421;50.202;7.852;2023-06-10T02:05:46;6.18;;;3.10;;
29218;SDS011;16421;50.202;7.852;2023-06-10T02:10:52;3.72;;;3.40;;
29218;SDS011;16421;50.202;7.852;2023-06-10T02:15:56;3.42;;;3.10;;
29218;SDS011;16421;50.202;7.852;2023-06-10T02:21:03;4.63;;;3.35;;
29218;SDS011;16421;50.202;7.852;2023-06-10T02:26:07;3.45;;;3.10;;
29218;SDS011;16421;50.202;7.852;2023-06-10T02:31:11;3.78;;;3.38;;
29218;SDS011;16421;50.202;7.852;2023-06-10T02:36:15;4.07;;;3.10;;
29218;SDS011;16421;50.202;7.852;2023-06-10T02:41:20;3.90;;;3.08;;
29218;SDS011;16421;50.202;7.852;2023-06-10T02:46:26;3.40;;;2.75;;
29218;SDS011;16421;50.202;7.852;2023-06-10T02:51:30;4.03;;;2.80;;
29218;SDS011;16421;50.202;7.852;2023-06-10T03:01:49;3.10;;;2.80;;
29218;SDS011;16421;50.202;7.852;2023-06-10T03:06:53;2.88;;;2.58;;
29218;SDS011;16421;50.202;7.852;2023-06-10T03:12:04;3.42;;;2.50;;
29218;SDS011;16421;50.202;7.852;2023-06-10T03:17:14;3.35;;;2.78;;
29218;SDS011;16421;50.202;7.852;2023-06-10T03:22:19;3.83;;;2.57;;
29218;SDS011;16421;50.202;7.852;2023-06-10T03:27:38;4.32;;;3.25;;
29218;SDS011;16421;50.202;7.852;2023-06-10T03:32:42;3.80;;;3.30;;
29218;SDS011;16421;50.202;7.852;2023-06-10T03:37:49;3.42;;;3.13;;
29218;SDS011;16421;50.202;7.852;2023-06-10T03:42:54;3.67;;;3.20;;
29218;SDS011;16421;50.202;7.852;2023-06-10T03:47:58;3.58;;;3.03;;
29218;SDS011;16421;50.202;7.852;2023-06-10T03:53:10;3.42;;;3.08;;
29218;SDS011;16421;50.202;7.852;2023-06-10T03:58:17;3.50;;;3.20;;
29218;SDS011;16421;50.202;7.852;2023-06-10T04:03:21;4.07;;;3.63;;
29218;SDS011;16421;50.202;7.852;2023-06-10T04:08:26;4.65;;;3.78;;
29218;SDS011;16421;50.202;7.852;2023-06-10T04:13:31;3.90;;;3.33;;
29218;SDS011;16421;50.202;7.852;2023-06-10T04:18:34;4.35;;;3.17;;
29218;SDS011;16421;50.202;7.852;2023-06-10T04:23:41;3.47;;;2.72;;
29218;SDS011;16421;50.202;7.852;2023-06-10T04:28:46;4.30;;;3.10;;
29218;SDS011;16421;50.202;7.852;2023-06-10T04:33:51;3.13;;;2.83;;
29218;SDS011;16421;50.202;7.852;2023-06-10T04:38:55;6.75;;;3.28;;
29218;SDS011;16421;50.202;7.852;2023-06-10T04:44:02;4.70;;;3.00;;
29218;SDS011;16421;50.202;7.852;2023-06-10T04:49:07;3.15;;;2.78;;
29218;SDS011;16421;50.202;7.852;2023-06-10T04:54:10;3.75;;;2.80;;
29218;SDS011;16421;50.202;7.852;2023-06-10T04:59:15;3.92;;;3.17;;
29218;SDS011;16421;50.202;7.852;2023-06-10T05:04:18;3.70;;;2.92;;
29218;SDS011;16421;50.202;7.852;2023-06-10T05:09:22;3.25;;;2.95;;
29218;SDS011;16421;50.202;7.852;2023-06-10T05:14:27;3.40;;;2.60;;
29218;SDS011;16421;50.202;7.852;2023-06-10T05:19:30;2.72;;;2.53;;
29218;SDS011;16421;50.202;7.852;2023-06-10T05:24:34;3.25;;;2.80;;
29218;SDS011;16421;50.202;7.852;2023-06-10T05:29:39;3.42;;;2.50;;
29218;SDS011;16421;50.202;7.852;2023-06-10T05:34:42;2.92;;;2.60;;
29218;SDS011;16421;50.202;7.852;2023-06-10T05:39:47;3.60;;;2.90;;
29218;SDS011;16421;50.202;7.852;2023-06-10T05:44:52;3.40;;;2.88;;
29218;SDS011;16421;50.202;7.852;2023-06-10T05:49:56;3.20;;;2.55;;
29218;SDS011;16421;50.202;7.852;2023-06-10T05:54:59;4.07;;;2.90;;
29218;SDS011;16421;50.202;7.852;2023-06-10T06:00:05;4.10;;;2.60;;
29218;SDS011;16421;50.202;7.852;2023-06-10T06:05:15;4.07;;;2.80;;
29218;SDS011;16421;50.202;7.852;2023-06-10T06:10:19;3.58;;;3.25;;
29218;SDS011;16421;50.202;7.852;2023-06-10T06:15:24;2.95;;;2.60;;
29218;SDS011;16421;50.202;7.852;2023-06-10T06:20:28;4.30;;;2.38;;
29218;SDS011;16421;50.202;7.852;2023-06-10T06:25:31;2.80;;;2.13;;
29218;SDS011;16421;50.202;7.852;2023-06-10T06:30:38;4.03;;;2.67;;
29218;SDS011;16421;50.202;7.852;2023-06-10T06:35:41;3.20;;;2.65;;
29218;SDS011;16421;50.202;7.852;2023-06-10T06:40:44;3.67;;;2.22;;
29218;SDS011;16421;50.202;7.852;2023-06-10T06:45:49;2.47;;;2.15;;
29218;SDS011;16421;50.202;7.852;2023-06-10T06:50:53;2.65;;;2.20;;
29218;SDS011;16421;50.202;7.852;2023-06-10T06:55:57;2.28;;;2.03;;
29218;SDS011;16421;50.202;7.852;2023-06-10T07:01:05;5.20;;;1.88;;
29218;SDS011;16421;50.202;7.852;2023-06-10T07:06:09;3.22;;;1.95;;
29218;SDS011;16421;50.202;7.852;2023-06-10T07:11:13;2.38;;;2.17;;
29218;SDS011;16421;50.202;7.852;2023-06-10T07:16:18;1.77;;;1.67;;
29218;SDS011;16421;50.202;7.852;2023-06-10T07:21:22;2.30;;;1.85;;
29218;SDS011;16421;50.202;7.852;2023-06-10T07:26:25;2.75;;;1.75;;
29218;SDS011;16421;50.202;7.852;2023-06-10T07:31:30;2.95;;;1.80;;
29218;SDS011;16421;50.202;7.852;2023-06-10T07:36:33;3.75;;;1.98;;
29218;SDS011;16421;50.202;7.852;2023-06-10T07:41:37;2.53;;;1.55;;
29218;SDS011;16421;50.202;7.852;2023-06-10T07:46:42;2.92;;;1.92;;
29218;SDS011;16421;50.202;7.852;2023-06-10T07:51:45;3.45;;;2.20;;
29218;SDS011;16421;50.202;7.852;2023-06-10T07:56:49;3.30;;;2.22;;
29218;SDS011;16421;50.202;7.852;2023-06-10T08:01:55;2.35;;;2.15;;
29218;SDS011;16421;50.202;7.852;2023-06-10T08:06:59;3.00;;;1.98;;
29218;SDS011;16421;50.202;7.852;2023-06-10T08:12:02;5.15;;;2.50;;
29218;SDS011;16421;50.202;7.852;2023-06-10T08:17:10;3.25;;;2.53;;
29218;SDS011;16421;50.202;7.852;2023-06-10T08:22:14;2.28;;;2.08;;
29218;SDS011;16421;50.202;7.852;2023-06-10T08:27:17;3.28;;;2.80;;
29218;SDS011;16421;50.202;7.852;2023-06-10T08:37:53;2.42;;;2.03;;
29218;SDS011;16421;50.202;7.852;2023-06-10T08:42:59;2.67;;;1.90;;
29218;SDS011;16421;50.202;7.852;2023-06-10T08:48:07;3.58;;;3.13;;
29218;SDS011;16421;50.202;7.852;2023-06-10T08:53:16;3.90;;;2.67;;
29218;SDS011;16421;50.202;7.852;2023-06-10T08:58:21;3.47;;;2.08;;
29218;SDS011;16421;50.202;7.852;2023-06-10T09:03:24;2.33;;;2.13;;
29218;SDS011;16421;50.202;7.852;2023-06-10T09:08:29;3.63;;;2.47;;
29218;SDS011;16421;50.202;7.852;2023-06-10T09:13:33;3.63;;;2.37;;
29218;SDS011;16421;50.202;7.852;2023-06-10T09:18:36;2.45;;;2.22;;
29218;SDS011;16421;50.202;7.852;2023-06-10T09:23:41;3.28;;;1.92;;
29218;SDS011;16421;50.202;7.852;2023-06-10T09:28:47;2.67;;;2.42;;
29218;SDS011;16421;50.202;7.852;2023-06-10T09:33:51;2.97;;;2.15;;
29218;SDS011;16421;50.202;7.852;2023-06-10T09:38:56;2.45;;;2.20;;
29218;SDS011;16421;50.202;7.852;2023-06-10T09:43:59;2.43;;;2.00;;
29218;SDS011;16421;50.202;7.852;2023-06-10T09:49:02;7.07;;;2.10;;
29218;SDS011;16421;50.202;7.852;2023-06-10T09:54:07;2.22;;;2.03;;
29218;SDS011;16421;50.202;7.852;2023-06-10T09:59:11;2.97;;;2.10;;
29218;SDS011;16421;50.202;7.852;2023-06-10T10:04:14;3.00;;;2.30;;
29218;SDS011;16421;50.202;7.852;2023-06-10T10:09:27;2.20;;;2.00;;
29218;SDS011;16421;50.202;7.852;2023-06-10T10:14:31;2.38;;;2.10;;
29218;SDS011;16421;50.202;7.852;2023-06-10T10:19:36;3.70;;;1.90;;
29218;SDS011;16421;50.202;7.852;2023-06-10T10:24:48;3.28;;;2.30;;
29218;SDS011;16421;50.202;7.852;2023-06-10T10:29:53;2.83;;;2.53;;
29218;SDS011;16421;50.202;7.852;2023-06-10T10:34:59;2.55;;;2.30;;
29218;SDS011;16421;50.202;7.852;2023-06-10T10:40:08;2.50;;;2.10;;
29218;SDS011;16421;50.202;7.852;2023-06-10T10:45:13;2.22;;;1.98;;
29218;SDS011;16421;50.202;7.852;2023-06-10T10:50:18;2.75;;;2.03;;
29218;SDS011;16421;50.202;7.852;2023-06-10T10:55:24;3.53;;;2.20;;
29218;SDS011;16421;50.202;7.852;2023-06-10T11:00:28;2.45;;;2.03;;
29218;SDS011;16421;50.202;7.852;2023-06-10T11:05:36;2.20;;;1.93;;
29218;SDS011;16421;50.202;7.852;2023-06-10T11:10:51;3.33;;;1.80;;
29218;SDS011;16421;50.202;7.852;2023-06-10T11:15:56;2.58;;;1.95;;
29218;SDS011;16421;50.202;7.852;2023-06-10T11:21:00;3.55;;;2.28;;
29218;SDS011;16421;50.202;7.852;2023-06-10T11:26:20;2.25;;;1.58;;
29218;SDS011;16421;50.202;7.852;2023-06-10T11:31:35;1.63;;;1.50;;
29218;SDS011;16421;50.202;7.852;2023-06-10T11:36:45;3.45;;;1.90;;
29218;SDS011;16421;50.202;7.852;2023-06-10T11:41:50;2.20;;;1.90;;
29218;SDS011;16421;50.202;7.852;2023-06-10T11:46:55;2.22;;;1.80;;
29218;SDS011;16421;50.202;7.852;2023-06-10T11:51:59;1.98;;;1.75;;
29218;SDS011;16421;50.202;7.852;2023-06-10T11:57:04;3.08;;;1.90;;
29218;SDS011;16421;50.202;7.852;2023-06-10T12:02:14;3.30;;;1.88;;
29218;SDS011;16421;50.202;7.852;2023-06-10T12:07:18;1.90;;;1.60;;
29218;SDS011;16421;50.202;7.852;2023-06-10T12:12:24;3.35;;;1.90;;
29218;SDS011;16421;50.202;7.852;2023-06-10T12:17:37;3.72;;;2.13;;
29218;SDS011;16421;50.202;7.852;2023-06-10T12:22:41;1.92;;;1.73;;
29218;SDS011;16421;50.202;7.852;2023-06-10T12:27:51;1.88;;;1.67;;
29218;SDS011;16421;50.202;7.852;2023-06-10T12:32:55;2.80;;;1.95;;
29218;SDS011;16421;50.202;7.852;2023-06-10T12:37:59;2.57;;;1.60;;
29218;SDS011;16421;50.202;7.852;2023-06-10T12:43:07;2.17;;;1.80;;
29218;SDS011;16421;50.202;7.852;2023-06-10T12:48:16;2.20;;;1.88;;
29218;SDS011;16421;50.202;7.852;2023-06-10T12:53:22;2.00;;;1.58;;
29218;SDS011;16421;50.202;7.852;2023-06-10T12:58:29;2.67;;;1.67;;
29218;SDS011;16421;50.202;7.852;2023-06-10T13:08:35;2.10;;;1.33;;
29218;SDS011;16421;50.202;7.852;2023-06-10T13:13:40;1.40;;;1.30;;
29218;SDS011;16421;50.202;7.852;2023-06-10T13:23:46;1.58;;;1.30;;
29218;SDS011;16421;50.202;7.852;2023-06-10T13:28:51;1.65;;;1.55;;
29218;SDS011;16421;50.202;7.852;2023-06-10T13:33:54;1.85;;;1.58;;
29218;SDS011;16421;50.202;7.852;2023-06-10T13:38:58;3.40;;;1.70;;
29218;SDS011;16421;50.202;7.852;2023-06-10T13:44:03;2.88;;;1.50;;
29218;SDS011;16421;50.202;7.852;2023-06-10T13:49:07;1.70;;;1.05;;
29218;SDS011;16421;50.202;7.852;2023-06-10T13:54:11;1.55;;;1.30;;
29218;SDS011;16421;50.202;7.852;2023-06-10T13:59:18;1.75;;;1.50;;
29218;SDS011;16421;50.202;7.852;2023-06-10T14:04:21;2.03;;;1.50;;
29218;SDS011;16421;50.202;7.852;2023-06-10T14:09:25;1.60;;;1.40;;
29218;SDS011;16421;50.202;7.852;2023-06-10T14:14:30;2.03;;;1.65;;
29218;SDS011;16421;50.202;7.852;2023-06-10T14:19:34;2.03;;;1.48;;
29218;SDS011;16421;50.202;7.852;2023-06-10T14:24:37;2.25;;;1.85;;
29218;SDS011;16421;50.202;7.852;2023-06-10T14:29:42;1.98;;;1.67;;
29218;SDS011;16421;50.202;7.852;2023-06-10T14:34:45;1.80;;;1.60;;
29218;SDS011;16421;50.202;7.852;2023-06-10T14:39:48;2.40;;;1.58;;
29218;SDS011;16421;50.202;7.852;2023-06-10T14:44:53;2.78;;;1.77;;
29218;SDS011;16421;50.202;7.852;2023-06-10T14:49:56;2.25;;;1.80;;
29218;SDS011;16421;50.202;7.852;2023-06-10T14:55:00;2.30;;;1.92;;
29218;SDS011;16421;50.202;7.852;2023-06-10T15:00:06;1.98;;;1.50;;
29218;SDS011;16421;50.202;7.852;2023-06-10T15:05:10;2.13;;;1.63;;
29218;SDS011;16421;50.202;7.852;2023-06-10T15:10:13;3.10;;;1.80;;
29218;SDS011;16421;50.202;7.852;2023-06-10T15:15:18;2.03;;;1.73;;
29218;SDS011;16421;50.202;7.852;2023-06-10T15:20:22;2.40;;;2.00;;
29218;SDS011;16421;50.202;7.852;2023-06-10T15:25:25;2.10;;;1.90;;
29218;SDS011;16421;50.202;7.852;2023-06-10T15:30:32;2.88;;;2.35;;
29218;SDS011;16421;50.202;7.852;2023-06-10T15:35:35;2.50;;;1.85;;
29218;SDS011;16421;50.202;7.852;2023-06-10T15:40:42;3.80;;;2.13;;
29218;SDS011;16421;50.202;7.852;2023-06-10T15:45:46;2.95;;;2.30;;
29218;SDS011;16421;50.202;7.852;2023-06-10T15:50:49;1.67;;;1.52;;
29218;SDS011;16421;50.202;7.852;2023-06-10T15:55:53;4.25;;;2.42;;
29218;SDS011;16421;50.202;7.852;2023-06-10T16:00:58;1.65;;;1.38;;
29218;SDS011;16421;50.202;7.852;2023-06-10T16:06:02;2.22;;;2.03;;
29218;SDS011;16421;50.202;7.852;2023-06-10T16:11:05;2.70;;;2.10;;
29218;SDS011;16421;50.202;7.852;2023-06-10T16:16:10;1.77;;;1.45;;
29218;SDS011;16421;50.202;7.852;2023-06-10T16:21:15;2.05;;;1.55;;
29218;SDS011;16421;50.202;7.852;2023-06-10T16:26:18;1.95;;;1.80;;
29218;SDS011;16421;50.202;7.852;2023-06-10T16:31:23;1.27;;;1.02;;
29218;SDS011;16421;50.202;7.852;2023-06-10T16:36:27;2.03;;;1.60;;
29218;SDS011;16421;50.202;7.852;2023-06-10T16:41:30;2.30;;;2.10;;
29218;SDS011;16421;50.202;7.852;2023-06-10T16:46:35;1.77;;;1.65;;
29218;SDS011;16421;50.202;7.852;2023-06-10T16:51:38;2.15;;;1.85;;
29218;SDS011;16421;50.202;7.852;2023-06-10T16:56:41;1.52;;;1.27;;
29218;SDS011;16421;50.202;7.852;2023-06-10T17:01:46;1.63;;;1.35;;
29218;SDS011;16421;50.202;7.852;2023-06-10T17:06:49;3.58;;;1.40;;
29218;SDS011;16421;50.202;7.852;2023-06-10T17:11:53;3.33;;;1.63;;
29218;SDS011;16421;50.202;7.852;2023-06-10T17:16:57;1.88;;;1.48;;
29218;SDS011;16421;50.202;7.852;2023-06-10T17:22:01;1.63;;;1.52;;
29218;SDS011;16421;50.202;7.852;2023-06-10T17:27:04;1.95;;;1.60;;
29218;SDS011;16421;50.202;7.852;2023-06-10T17:32:09;2.35;;;1.80;;
29218;SDS011;16421;50.202;7.852;2023-06-10T17:37:12;1.60;;;1.27;;
29218;SDS011;16421;50.202;7.852;2023-06-10T17:42:16;1.60;;;1.45;;
29218;SDS011;16421;50.202;7.852;2023-06-10T17:47:20;1.40;;;1.25;;
29218;SDS011;16421;50.202;7.852;2023-06-10T17:52:24;1.58;;;1.35;;
29218;SDS011;16421;50.202;7.852;2023-06-10T17:57:27;3.40;;;1.52;;
29218;SDS011;16421;50.202;7.852;2023-06-10T18:07:37;2.20;;;1.47;;
29218;SDS011;16421;50.202;7.852;2023-06-10T18:12:40;1.60;;;1.27;;
29218;SDS011;16421;50.202;7.852;2023-06-10T18:17:45;1.50;;;1.40;;
29218;SDS011;16421;50.202;7.852;2023-06-10T18:22:48;1.40;;;1.23;;
29218;SDS011;16421;50.202;7.852;2023-06-10T18:27:52;1.77;;;1.40;;
29218;SDS011;16421;50.202;7.852;2023-06-10T18:32:56;1.17;;;1.08;;
29218;SDS011;16421;50.202;7.852;2023-06-10T18:38:00;1.95;;;1.50;;
29218;SDS011;16421;50.202;7.852;2023-06-10T18:43:03;1.83;;;1.40;;
29218;SDS011;16421;50.202;7.852;2023-06-10T18:48:08;1.70;;;1.58;;
29218;SDS011;16421;50.202;7.852;2023-06-10T18:53:11;1.70;;;1.60;;
29218;SDS011;16421;50.202;7.852;2023-06-10T18:58:15;3.03;;;1.33;;
29218;SDS011;16421;50.202;7.852;2023-06-10T19:03:20;2.28;;;1.40;;
29218;SDS011;16421;50.202;7.852;2023-06-10T19:08:23;2.90;;;1.85;;
29218;SDS011;16421;50.202;7.852;2023-06-10T19:13:26;2.35;;;1.60;;
29218;SDS011;16421;50.202;7.852;2023-06-10T19:18:31;1.98;;;1.50;;
29218;SDS011;16421;50.202;7.852;2023-06-10T19:23:35;1.53;;;1.43;;
29218;SDS011;16421;50.202;7.852;2023-06-10T19:28:38;2.60;;;1.88;;
29218;SDS011;16421;50.202;7.852;2023-06-10T19:33:42;2.90;;;2.17;;
29218;SDS011;16421;50.202;7.852;2023-06-10T19:38:46;3.17;;;2.07;;
29218;SDS011;16421;50.202;7.852;2023-06-10T19:43:49;1.75;;;1.65;;
29218;SDS011;16421;50.202;7.852;2023-06-10T19:48:54;2.45;;;2.25;;
29218;SDS011;16421;50.202;7.852;2023-06-10T19:53:59;2.20;;;2.00;;
29218;SDS011;16421;50.202;7.852;2023-06-10T19:59:02;2.55;;;2.20;;
29218;SDS011;16421;50.202;7.852;2023-06-10T20:04:08;2.33;;;1.70;;
29218;SDS011;16421;50.202;7.852;2023-06-10T20:09:11;2.22;;;2.03;;
29218;SDS011;16421;50.202;7.852;2023-06-10T20:14:14;2.20;;;2.00;;
29218;SDS011;16421;50.202;7.852;2023-06-10T20:19:19;2.58;;;2.13;;
29218;SDS011;16421;50.202;7.852;2023-06-10T20:24:22;2.95;;;2.05;;
29218;SDS011;16421;50.202;7.852;2023-06-10T20:29:25;2.10;;;1.90;;
29218;SDS011;16421;50.202;7.852;2023-06-10T20:34:30;3.10;;;2.05;;
29218;SDS011;16421;50.202;7.852;2023-06-10T20:39:34;2.35;;;2.15;;
29218;SDS011;16421;50.202;7.852;2023-06-10T20:44:37;2.15;;;1.92;;
29218;SDS011;16421;50.202;7.852;2023-06-10T20:49:43;2.35;;;2.15;;
29218;SDS011;16421;50.202;7.852;2023-06-10T20:54:46;2.83;;;2.37;;
29218;SDS011;16421;50.202;7.852;2023-06-10T20:59:50;2.47;;;2.28;;
29218;SDS011;16421;50.202;7.852;2023-06-10T21:04:55;2.22;;;2.03;;
29218;SDS011;16421;50.202;7.852;2023-06-10T21:10:01;3.03;;;2.22;;
29218;SDS011;16421;50.202;7.852;2023-06-10T21:15:05;2.40;;;2.08;;
29218;SDS011;16421;50.202;7.852;2023-06-10T21:20:11;4.83;;;2.60;;
29218;SDS011;16421;50.202;7.852;2023-06-10T21:25:17;4.18;;;2.58;;
29218;SDS011;16421;50.202;7.852;2023-06-10T21:30:21;2.72;;;2.45;;
29218;SDS011;16421;50.202;7.852;2023-06-10T21:35:26;2.47;;;2.05;;
29218;SDS011;16421;50.202;7.852;2023-06-10T21:40:30;3.23;;;2.40;;
29218;SDS011;16421;50.202;7.852;2023-06-10T21:45:33;4.57;;;2.40;;
29218;SDS011;16421;50.202;7.852;2023-06-10T21:50:38;2.72;;;2.10;;
29218;SDS011;16421;50.202;7.852;2023-06-10T21:55:42;2.63;;;2.20;;
29218;SDS011;16421;50.202;7.852;2023-06-10T22:00:46;4.00;;;2.42;;
29218;SDS011;16421;50.202;7.852;2023-06-10T22:05:51;2.67;;;2.20;;
29218;SDS011;16421;50.202;7.852;2023-06-10T22:10:54;2.50;;;2.30;;
29218;SDS011;16421;50.202;7.852;2023-06-10T22:15:58;2.35;;;2.15;;
29218;SDS011;16421;50.202;7.852;2023-06-10T22:21:03;3.13;;;2.65;;
29218;SDS011;16421;50.202;7.852;2023-06-10T22:26:06;2.58;;;2.38;;
29218;SDS011;16421;50.202;7.852;2023-06-10T22:31:10;5.50;;;2.83;;
29218;SDS011;16421;50.202;7.852;2023-06-10T22:36:15;2.90;;;2.53;;
29218;SDS011;16421;50.202;7.852;2023-06-10T22:41:19;3.90;;;2.70;;
29218;SDS011;16421;50.202;7.852;2023-06-10T22:46:22;3.30;;;2.28;;
29218;SDS011;16421;50.202;7.852;2023-06-10T22:51:28;3.78;;;3.00;;
29218;SDS011;16421;50.202;7.852;2023-06-10T22:56:31;2.43;;;2.23;;
29218;SDS011;16421;50.202;7.852;2023-06-10T23:01:35;2.35;;;2.13;;
29218;SDS011;16421;50.202;7.852;2023-06-10T23:06:40;3.90;;;2.38;;
29218;SDS011;16421;50.202;7.852;2023-06-10T23:11:46;3.00;;;2.40;;
29218;SDS011;16421;50.202;7.852;2023-06-10T23:16:50;3.30;;;2.58;;
29218;SDS011;16421;50.202;7.852;2023-06-10T23:21:55;2.88;;;2.30;;
29218;SDS011;16421;50.202;7.852;2023-06-10T23:27:00;3.53;;;2.47;;
29218;SDS011;16421;50.202;7.852;2023-06-10T23:32:04;2.72;;;2.45;;
29218;SDS011;16421;50.202;7.852;2023-06-10T23:37:09;2.35;;;2.15;;
29218;SDS011;16421;50.202;7.852;2023-06-10T23:42:13;2.55;;;2.30;;
29218;SDS011;16421;50.202;7.852;2023-06-10T23:47:17;2.63;;;2.42;;
29218;SDS011;16421;50.202;7.852;2023-06-10T23:52:23;2.70;;;2.50;;
29218;SDS011;16421;50.202;7.852;2023-06-10T23:57:27;2.58;;;2.38;;
